Flight Track Log - Related Links

Times and Time Zones

All times are in EDT time to prevent confusion due to time zone crossing. See the N137TK flight status page for this flight to view local times or setup timezone preferences in your user account.

Time Position Orientation Groundspeed Altitude Reporting Facility
EDT Latitude Longitude Course Direction KTS MPH feet Rate Location/Type
Mon 03:48:59 PM 37.1983 -76.0431 61° Northeast 206 237 13,500  Level Washington Center
Mon 03:50:06 PM 37.1397 -76.0739 203° Southwest 217 250 15,100 1,465 Climbing Washington Center
Mon 03:51:06 PM 37.0811 -76.1047 203° Southwest 220 253 16,600 1,339 Climbing Washington Center
Mon 03:52:07 PM 37.0289 -76.1306 202° Southwest 217 250 17,800 1,271 Climbing Washington Center
Mon 03:53:04 PM 36.9747 -76.1586 202° Southwest 215 247 19,100 1,220 Climbing Washington Center
Mon 03:54:00 PM -15.9669 168.4921 61° Northeast  Level Estimated
Mon 03:54:05 PM 36.9286 -76.1972 214° Southwest 200 230 20,200  Level Washington Center
Mon 03:55:06 PM 36.8844 -76.2489 223° Southwest 209 241 21,300 1,300 Climbing Washington Center
Mon 03:56:05 PM 36.8425 -76.3006 225° Southwest 178 205 22,800 857 Climbing Washington Center
Mon 03:57:05 PM 36.7983 -76.3544 224° Southwest 259 298 23,000 99 Climbing Washington Center
Mon 03:58:06 PM 36.7458 -76.4189 225° Southwest 260 299 23,000  Level Washington Center
Mon 03:59:07 PM 36.6931 -76.4881 226° Southwest 271 312 23,000 252 Level Washington Center
Mon 04:00:05 PM 36.6361 -76.5547 223° Southwest 277 319 23,500 504 Climbing Washington Center
Mon 04:01:06 PM 36.5836 -76.6189 224° Southwest 277 319 24,000 496 Climbing Washington Center
Mon 04:02:06 PM 36.5286 -76.6828 223° Southwest 277 319 24,500 496 Climbing Washington Center
Mon 04:03:07 PM 36.4719 -76.7414 220° Southwest 277 319 25,000 504 Climbing Washington Center
Mon 04:04:05 PM 36.4150 -76.8000 220° Southwest 272 313 25,500 504 Climbing Washington Center
Mon 04:05:06 PM 36.3600 -76.8558 219° Southwest 272 313 26,000 246 Climbing Washington Center
Mon 04:06:07 PM 36.3011 -76.9142 219° Southwest 272 313 26,000  Level Washington Center
Mon 04:07:07 PM 36.2400 -76.9750 219° Southwest 272 313 26,000  Level Washington Center
Mon 04:08:06 PM 36.1808 -77.0356 220° Southwest 278 320 26,000  Level Washington Center
Mon 04:09:06 PM 36.1194 -77.0989 220° Southwest 283 326 26,000  Level Washington Center
Mon 04:10:07 PM 36.0603 -77.1594 220° Southwest 278 320 26,000  Level Washington Center
Mon 04:11:06 PM 35.9989 -77.2222 220° Southwest 283 326 26,000  Level Washington Center
Mon 04:12:06 PM 35.9333 -77.2875 219° Southwest 289 333 26,000  Level Washington Center
Mon 04:13:07 PM 35.8697 -77.3503 219° Southwest 289 333 26,000  Level Washington Center
Mon 04:14:07 PM 35.8083 -77.4131 220° Southwest 294 338 26,000  Level Washington Center
Mon 04:15:06 PM 35.7447 -77.4756 219° Southwest 294 338 26,000  Level Washington Center
Mon 04:16:06 PM 35.6811 -77.5406 220° Southwest 299 344 26,000  Level Washington Center
Mon 04:17:07 PM 35.6175 -77.6028 218° Southwest 304 350 26,000  Level Washington Center
Mon 04:18:05 PM 35.5539 -77.6678 220° Southwest 304 350 26,000  Level Washington Center
Mon 04:19:06 PM 35.5028 -77.7172 218° Southwest 304 350 26,000  Level Washington Center
Mon 04:20:06 PM 35.4308 -77.7869 218° Southwest 304 350 26,000  Level Washington Center
Mon 04:21:08 PM 35.3669 -77.8486 218° Southwest 304 350 26,000  Level Washington Center
Mon 04:22:05 PM 35.3011 -77.9131 219° Southwest 304 350 26,000  Level Washington Center
Mon 04:23:07 PM 35.2392 -77.9775 220° Southwest 304 350 26,000  Level Washington Center
Mon 04:24:05 PM 35.1756 -78.0392 218° Southwest 304 350 26,000  Level Washington Center
Mon 04:25:05 PM 35.1094 -78.1006 217° Southwest 304 350 26,000  Level Washington Center
Mon 04:26:05 PM 35.0456 -78.1644 219° Southwest 304 350 26,000  Level Washington Center
Mon 04:27:06 PM 34.9817 -78.2258 218° Southwest 304 350 26,000  Level Washington Center
Mon 04:28:06 PM 34.9197 -78.2872 219° Southwest 304 350 26,000  Level Washington Center
Mon 04:29:07 PM 34.8556 -78.3508 219° Southwest 304 350 26,000  Level Washington Center
Mon 04:30:07 PM 34.7894 -78.4169 219° Southwest 304 350 26,000  Level Washington Center
Mon 04:32:30 PM 34.6361 -78.5600 218° Southwest 310 357 26,000  Level Jacksonville Center
Mon 04:33:30 PM 34.5736 -78.6211 219° Southwest 304 350 26,000  Level Jacksonville Center
Mon 04:34:30 PM 34.5108 -78.6822 219° Southwest 299 344 26,000  Level Jacksonville Center
Mon 04:35:30 PM 34.4464 -78.7483 220° Southwest 299 344 26,000  Level Jacksonville Center
Mon 04:36:30 PM 34.3858 -78.8092 220° Southwest 294 338 26,000  Level Jacksonville Center
Mon 04:37:30 PM 34.3189 -78.8675 216° Southwest 294 338 26,000  Level Jacksonville Center
Mon 04:38:30 PM 34.2542 -78.9333 220° Southwest 294 338 26,000  Level Jacksonville Center
Mon 04:39:30 PM 34.1892 -78.9914 216° Southwest 299 344 26,000  Level Jacksonville Center
Mon 04:40:30 PM 34.1264 -79.0544 220° Southwest 299 344 26,000  Level Jacksonville Center
Mon 04:41:30 PM 34.0614 -79.1125 217° Southwest 299 344 26,000 -500 Level Jacksonville Center
Mon 04:42:30 PM 33.9925 -79.1781 218° Southwest 304 350 25,000 -1,000 Descending Jacksonville Center
Mon 04:43:30 PM 33.9214 -79.2436 217° Southwest 310 357 24,000 -700 Descending Jacksonville Center
Mon 04:44:30 PM 33.8522 -79.3092 218° Southwest 316 364 23,600 -750 Descending Jacksonville Center
Mon 04:45:30 PM 33.7811 -79.3769 218° Southwest 316 364 22,500 -800 Descending Jacksonville Center
Mon 04:46:30 PM 33.7081 -79.4447 218° Southwest 321 369 22,000 -250 Descending Jacksonville Center
Mon 04:47:30 PM 33.6408 -79.5072 218° Southwest 310 357 22,000  Level Jacksonville Center
Mon 04:48:30 PM 33.5756 -79.5672 217° Southwest 305 351 22,000  Level Jacksonville Center
Mon 04:49:30 PM 33.5125 -79.6267 218° Southwest 305 351 22,000 -150 Level Jacksonville Center
Mon 04:50:30 PM 33.4472 -79.6864 217° Southwest 300 345 21,700 -950 Descending Jacksonville Center
Mon 04:51:30 PM 33.3781 -79.7536 219° Southwest 306 352 20,100 -1,550 Descending Jacksonville Center
Mon 04:52:30 PM 33.3044 -79.8208 217° Southwest 326 375 18,600 -1,400 Descending Jacksonville Center
Mon 04:53:30 PM 33.2331 -79.8853 217° Southwest 331 381 17,300 -1,400 Descending Jacksonville Center
Mon 04:54:30 PM 33.1614 -79.9522 218° Southwest 331 381 15,800 -1,500 Descending Jacksonville Center
Mon 04:55:30 PM 33.0919 -80.0142 217° Southwest 331 381 14,300 -1,500 Descending Jacksonville Center
Mon 04:56:30 PM 33.0225 -80.0781 218° Southwest 331 381 12,800 -1,400 Descending Jacksonville Center
Mon 04:57:30 PM 32.9675 -80.1369 222° Southwest 316 364 11,500 -1,150 Descending Jacksonville Center
Mon 04:58:30 PM 32.8936 -80.1986 215° Southwest 316 364 10,500 -1,300 Descending Jacksonville Center
Mon 04:59:30 PM 32.8300 -80.2547 217° Southwest 310 357 8,900 -1,350 Descending Jacksonville Center
Mon 05:00:30 PM 32.7706 -80.3011 213° Southwest 287 330 7,800 -1,100 Descending Jacksonville Center
Mon 05:01:30 PM 32.7172 -80.3519 219° Southwest 268 308 6,700 -1,100 Descending Jacksonville Center
Mon 05:02:30 PM 32.6703 -80.4025 222° Southwest 246 283 5,600 -1,400 Descending Jacksonville Center
Mon 05:03:30 PM 32.6214 -80.4631 226° Southwest 235 270 3,900 -1,350 Descending Jacksonville Center
Mon 05:04:30 PM 32.5783 -80.5111 223° Southwest 230 265 2,900 -1,000 Descending Jacksonville Center

Login

Don't have an account? Register now (free) for customized features, flight alerts, and more!